sensor_id;sensor_type;location;lat;lon;timestamp;temperature;humidity
15036;DHT22;7615;48.574;13.474;2023-06-19T00:00:31;17.20;99.90
15036;DHT22;7615;48.574;13.474;2023-06-19T00:02:58;16.30;99.90
15036;DHT22;7615;48.574;13.474;2023-06-19T00:05:26;16.40;99.90
15036;DHT22;7615;48.574;13.474;2023-06-19T00:07:53;15.90;99.90
15036;DHT22;7615;48.574;13.474;2023-06-19T00:10:20;16.00;99.90
15036;DHT22;7615;48.574;13.474;2023-06-19T00:12:48;15.90;99.90
15036;DHT22;7615;48.574;13.474;2023-06-19T00:15:15;15.80;99.90
15036;DHT22;7615;48.574;13.474;2023-06-19T00:17:42;16.10;99.90
15036;DHT22;7615;48.574;13.474;2023-06-19T00:20:10;16.20;99.90
15036;DHT22;7615;48.574;13.474;2023-06-19T00:22:39;16.10;99.90
15036;DHT22;7615;48.574;13.474;2023-06-19T00:25:06;16.90;99.90
15036;DHT22;7615;48.574;13.474;2023-06-19T00:27:33;16.60;99.90
15036;DHT22;7615;48.574;13.474;2023-06-19T00:30:02;16.80;99.90
15036;DHT22;7615;48.574;13.474;2023-06-19T00:32:29;16.20;99.90
15036;DHT22;7615;48.574;13.474;2023-06-19T00:37:23;15.90;99.90
15036;DHT22;7615;48.574;13.474;2023-06-19T00:39:50;15.80;99.90
15036;DHT22;7615;48.574;13.474;2023-06-19T00:42:17;15.80;99.90
15036;DHT22;7615;48.574;13.474;2023-06-19T00:44:43;15.70;99.90
15036;DHT22;7615;48.574;13.474;2023-06-19T00:49:40;15.60;99.90
15036;DHT22;7615;48.574;13.474;2023-06-19T00:52:18;15.60;99.90
15036;DHT22;7615;48.574;13.474;2023-06-19T00:54:48;15.50;99.90
15036;DHT22;7615;48.574;13.474;2023-06-19T00:57:16;15.40;99.90
15036;DHT22;7615;48.574;13.474;2023-06-19T00:59:43;15.40;99.90
15036;DHT22;7615;48.574;13.474;2023-06-19T01:04:39;15.30;99.90
15036;DHT22;7615;48.574;13.474;2023-06-19T01:07:09;15.30;99.90
15036;DHT22;7615;48.574;13.474;2023-06-19T01:09:43;15.30;99.90
15036;DHT22;7615;48.574;13.474;2023-06-19T01:12:16;15.30;99.90
15036;DHT22;7615;48.574;13.474;2023-06-19T01:14:50;15.30;99.90
15036;DHT22;7615;48.574;13.474;2023-06-19T01:17:21;15.30;99.90
15036;DHT22;7615;48.574;13.474;2023-06-19T01:19:52;15.30;99.90
15036;DHT22;7615;48.574;13.474;2023-06-19T01:22:27;15.30;99.90
15036;DHT22;7615;48.574;13.474;2023-06-19T01:28:17;15.30;99.90
15036;DHT22;7615;48.574;13.474;2023-06-19T01:33:15;15.10;99.90
15036;DHT22;7615;48.574;13.474;2023-06-19T01:35:46;15.30;99.90
15036;DHT22;7615;48.574;13.474;2023-06-19T01:38:16;15.30;99.90
15036;DHT22;7615;48.574;13.474;2023-06-19T01:40:45;15.30;99.90
15036;DHT22;7615;48.574;13.474;2023-06-19T01:43:26;15.30;99.90
15036;DHT22;7615;48.574;13.474;2023-06-19T01:45:54;15.30;99.90
15036;DHT22;7615;48.574;13.474;2023-06-19T01:48:21;15.30;99.90
15036;DHT22;7615;48.574;13.474;2023-06-19T01:50:49;15.30;99.90
15036;DHT22;7615;48.574;13.474;2023-06-19T01:53:18;15.30;99.90
15036;DHT22;7615;48.574;13.474;2023-06-19T01:55:45;15.30;99.90
15036;DHT22;7615;48.574;13.474;2023-06-19T01:58:12;15.40;99.90
15036;DHT22;7615;48.574;13.474;2023-06-19T02:00:39;15.30;99.90
15036;DHT22;7615;48.574;13.474;2023-06-19T02:03:06;15.30;99.90
15036;DHT22;7615;48.574;13.474;2023-06-19T02:05:33;15.30;99.90
15036;DHT22;7615;48.574;13.474;2023-06-19T02:08:05;15.30;99.90
15036;DHT22;7615;48.574;13.474;2023-06-19T02:10:33;15.30;99.90
15036;DHT22;7615;48.574;13.474;2023-06-19T02:13:00;15.20;99.90
15036;DHT22;7615;48.574;13.474;2023-06-19T02:15:27;15.20;99.90
15036;DHT22;7615;48.574;13.474;2023-06-19T02:17:55;15.20;99.90
15036;DHT22;7615;48.574;13.474;2023-06-19T02:20:22;15.20;99.90
15036;DHT22;7615;48.574;13.474;2023-06-19T02:22:50;15.10;99.90
15036;DHT22;7615;48.574;13.474;2023-06-19T02:25:17;15.20;99.90
15036;DHT22;7615;48.574;13.474;2023-06-19T02:27:46;15.00;99.90
15036;DHT22;7615;48.574;13.474;2023-06-19T02:30:13;15.00;99.90
15036;DHT22;7615;48.574;13.474;2023-06-19T02:32:40;15.00;99.90
15036;DHT22;7615;48.574;13.474;2023-06-19T02:35:10;15.10;99.90
15036;DHT22;7615;48.574;13.474;2023-06-19T02:37:37;15.20;99.90
15036;DHT22;7615;48.574;13.474;2023-06-19T02:40:05;15.10;99.90
15036;DHT22;7615;48.574;13.474;2023-06-19T02:42:34;15.20;99.90
15036;DHT22;7615;48.574;13.474;2023-06-19T02:45:03;15.20;99.90
15036;DHT22;7615;48.574;13.474;2023-06-19T02:47:30;15.20;99.90
15036;DHT22;7615;48.574;13.474;2023-06-19T02:49:57;15.20;99.90
15036;DHT22;7615;48.574;13.474;2023-06-19T02:52:24;15.20;99.90
15036;DHT22;7615;48.574;13.474;2023-06-19T02:54:51;15.20;99.90
15036;DHT22;7615;48.574;13.474;2023-06-19T02:57:18;15.10;99.90
15036;DHT22;7615;48.574;13.474;2023-06-19T02:59:45;15.20;99.90
15036;DHT22;7615;48.574;13.474;2023-06-19T03:02:14;15.20;99.90
15036;DHT22;7615;48.574;13.474;2023-06-19T03:04:43;15.10;99.90
15036;DHT22;7615;48.574;13.474;2023-06-19T03:07:16;15.10;99.90
15036;DHT22;7615;48.574;13.474;2023-06-19T03:09:43;15.10;99.90
15036;DHT22;7615;48.574;13.474;2023-06-19T03:12:11;15.30;99.90
15036;DHT22;7615;48.574;13.474;2023-06-19T03:14:39;15.30;99.90
15036;DHT22;7615;48.574;13.474;2023-06-19T03:17:06;15.40;99.90
15036;DHT22;7615;48.574;13.474;2023-06-19T03:19:34;15.40;99.90
15036;DHT22;7615;48.574;13.474;2023-06-19T03:22:02;15.40;99.90
15036;DHT22;7615;48.574;13.474;2023-06-19T03:24:29;15.30;99.90
15036;DHT22;7615;48.574;13.474;2023-06-19T03:26:56;15.20;99.90
15036;DHT22;7615;48.574;13.474;2023-06-19T03:29:23;15.20;99.90
15036;DHT22;7615;48.574;13.474;2023-06-19T03:31:50;15.10;99.90
15036;DHT22;7615;48.574;13.474;2023-06-19T03:34:17;15.10;99.90
15036;DHT22;7615;48.574;13.474;2023-06-19T03:37:00;15.00;99.90
15036;DHT22;7615;48.574;13.474;2023-06-19T03:39:27;15.10;99.90
15036;DHT22;7615;48.574;13.474;2023-06-19T03:41:54;15.10;99.90
15036;DHT22;7615;48.574;13.474;2023-06-19T03:44:22;15.00;99.90
15036;DHT22;7615;48.574;13.474;2023-06-19T03:46:48;15.10;99.90
15036;DHT22;7615;48.574;13.474;2023-06-19T03:49:16;15.10;99.90
15036;DHT22;7615;48.574;13.474;2023-06-19T03:51:43;15.10;99.90
15036;DHT22;7615;48.574;13.474;2023-06-19T03:54:12;15.20;99.90
15036;DHT22;7615;48.574;13.474;2023-06-19T03:56:39;15.30;99.90
15036;DHT22;7615;48.574;13.474;2023-06-19T03:59:06;15.30;99.90
15036;DHT22;7615;48.574;13.474;2023-06-19T04:01:33;15.40;99.90
15036;DHT22;7615;48.574;13.474;2023-06-19T04:04:00;15.50;99.90
15036;DHT22;7615;48.574;13.474;2023-06-19T04:06:26;15.70;99.90
15036;DHT22;7615;48.574;13.474;2023-06-19T04:08:53;15.80;99.90
15036;DHT22;7615;48.574;13.474;2023-06-19T04:11:22;15.80;99.90
15036;DHT22;7615;48.574;13.474;2023-06-19T04:13:49;15.90;99.90
15036;DHT22;7615;48.574;13.474;2023-06-19T04:16:16;16.00;99.90
15036;DHT22;7615;48.574;13.474;2023-06-19T04:18:50;16.20;99.90
15036;DHT22;7615;48.574;13.474;2023-06-19T04:21:21;16.30;99.90
15036;DHT22;7615;48.574;13.474;2023-06-19T04:23:50;16.30;99.90
15036;DHT22;7615;48.574;13.474;2023-06-19T04:26:18;16.20;99.90
15036;DHT22;7615;48.574;13.474;2023-06-19T04:28:48;16.20;99.90
15036;DHT22;7615;48.574;13.474;2023-06-19T04:31:16;16.10;99.90
15036;DHT22;7615;48.574;13.474;2023-06-19T04:33:44;16.10;99.90
15036;DHT22;7615;48.574;13.474;2023-06-19T04:36:12;16.10;99.90
15036;DHT22;7615;48.574;13.474;2023-06-19T04:38:45;16.20;99.90
15036;DHT22;7615;48.574;13.474;2023-06-19T04:41:21;16.00;99.90
15036;DHT22;7615;48.574;13.474;2023-06-19T04:44:14;16.10;99.90
15036;DHT22;7615;48.574;13.474;2023-06-19T04:46:56;15.90;99.90
15036;DHT22;7615;48.574;13.474;2023-06-19T04:49:44;16.30;99.90
15036;DHT22;7615;48.574;13.474;2023-06-19T04:52:24;16.20;99.90
15036;DHT22;7615;48.574;13.474;2023-06-19T04:55:16;16.20;99.90
15036;DHT22;7615;48.574;13.474;2023-06-19T04:58:02;16.20;99.90
15036;DHT22;7615;48.574;13.474;2023-06-19T05:01:08;16.20;99.90
15036;DHT22;7615;48.574;13.474;2023-06-19T05:04:12;16.20;99.90
15036;DHT22;7615;48.574;13.474;2023-06-19T05:07:21;16.30;99.90
15036;DHT22;7615;48.574;13.474;2023-06-19T05:10:21;16.30;99.90
15036;DHT22;7615;48.574;13.474;2023-06-19T05:13:29;16.50;99.90
15036;DHT22;7615;48.574;13.474;2023-06-19T05:16:29;16.60;99.90
15036;DHT22;7615;48.574;13.474;2023-06-19T05:19:17;16.70;99.90
15036;DHT22;7615;48.574;13.474;2023-06-19T05:21:45;16.70;99.90
15036;DHT22;7615;48.574;13.474;2023-06-19T05:24:37;16.80;99.90
15036;DHT22;7615;48.574;13.474;2023-06-19T05:27:22;16.90;99.90
15036;DHT22;7615;48.574;13.474;2023-06-19T05:47:11;16.70;99.90
15036;DHT22;7615;48.574;13.474;2023-06-19T05:49:46;16.70;99.90
15036;DHT22;7615;48.574;13.474;2023-06-19T05:52:14;16.50;99.90
15036;DHT22;7615;48.574;13.474;2023-06-19T05:54:44;16.40;99.90
15036;DHT22;7615;48.574;13.474;2023-06-19T05:57:11;16.40;99.90
15036;DHT22;7615;48.574;13.474;2023-06-19T06:03:05;16.30;99.90
15036;DHT22;7615;48.574;13.474;2023-06-19T06:05:32;16.30;99.90
15036;DHT22;7615;48.574;13.474;2023-06-19T06:11:22;16.10;99.90
15036;DHT22;7615;48.574;13.474;2023-06-19T06:14:02;16.10;99.90
15036;DHT22;7615;48.574;13.474;2023-06-19T06:19:54;16.10;99.90
15036;DHT22;7615;48.574;13.474;2023-06-19T06:22:27;16.00;99.90
15036;DHT22;7615;48.574;13.474;2023-06-19T06:24:56;16.20;99.90
15036;DHT22;7615;48.574;13.474;2023-06-19T06:27:31;16.30;99.90
15036;DHT22;7615;48.574;13.474;2023-06-19T06:36:41;16.50;99.90
15036;DHT22;7615;48.574;13.474;2023-06-19T06:39:10;16.60;99.90
15036;DHT22;7615;48.574;13.474;2023-06-19T06:41:42;16.50;99.90
15036;DHT22;7615;48.574;13.474;2023-06-19T06:44:13;16.50;99.90
15036;DHT22;7615;48.574;13.474;2023-06-19T06:46:44;16.40;99.90
15036;DHT22;7615;48.574;13.474;2023-06-19T06:52:17;16.90;99.90
15036;DHT22;7615;48.574;13.474;2023-06-19T06:54:45;16.90;99.90
15036;DHT22;7615;48.574;13.474;2023-06-19T06:57:12;17.10;99.90
15036;DHT22;7615;48.574;13.474;2023-06-19T06:59:40;17.10;99.90
15036;DHT22;7615;48.574;13.474;2023-06-19T07:02:13;17.20;99.90
15036;DHT22;7615;48.574;13.474;2023-06-19T07:04:40;17.20;99.90
15036;DHT22;7615;48.574;13.474;2023-06-19T07:07:08;17.20;99.90
15036;DHT22;7615;48.574;13.474;2023-06-19T07:09:41;17.30;99.90
15036;DHT22;7615;48.574;13.474;2023-06-19T07:12:24;17.10;99.90
15036;DHT22;7615;48.574;13.474;2023-06-19T07:15:13;17.10;99.90
15036;DHT22;7615;48.574;13.474;2023-06-19T07:17:59;17.20;99.90
15036;DHT22;7615;48.574;13.474;2023-06-19T07:20:48;17.30;99.90
15036;DHT22;7615;48.574;13.474;2023-06-19T07:23:43;17.50;99.90
15036;DHT22;7615;48.574;13.474;2023-06-19T07:29:49;17.90;99.90
15036;DHT22;7615;48.574;13.474;2023-06-19T07:46:31;19.10;99.90
15036;DHT22;7615;48.574;13.474;2023-06-19T07:49:16;19.60;99.90
15036;DHT22;7615;48.574;13.474;2023-06-19T07:55:19;20.10;99.90
15036;DHT22;7615;48.574;13.474;2023-06-19T08:01:20;20.30;99.90
15036;DHT22;7615;48.574;13.474;2023-06-19T08:03:54;20.10;99.90
15036;DHT22;7615;48.574;13.474;2023-06-19T08:06:21;19.90;99.90
15036;DHT22;7615;48.574;13.474;2023-06-19T08:08:48;19.70;99.90
15036;DHT22;7615;48.574;13.474;2023-06-19T08:11:19;19.80;99.90
15036;DHT22;7615;48.574;13.474;2023-06-19T08:13:46;19.70;99.90
15036;DHT22;7615;48.574;13.474;2023-06-19T08:16:14;19.90;99.90
15036;DHT22;7615;48.574;13.474;2023-06-19T08:18:41;19.90;99.90
15036;DHT22;7615;48.574;13.474;2023-06-19T08:21:10;20.00;99.90
15036;DHT22;7615;48.574;13.474;2023-06-19T08:23:38;20.20;99.90
15036;DHT22;7615;48.574;13.474;2023-06-19T08:33:22;20.50;99.90
15036;DHT22;7615;48.574;13.474;2023-06-19T08:35:52;20.60;99.90
15036;DHT22;7615;48.574;13.474;2023-06-19T08:38:26;20.70;99.90
15036;DHT22;7615;48.574;13.474;2023-06-19T08:40:57;20.80;99.90
15036;DHT22;7615;48.574;13.474;2023-06-19T08:43:40;20.70;99.90
15036;DHT22;7615;48.574;13.474;2023-06-19T08:50:07;21.20;99.90
15036;DHT22;7615;48.574;13.474;2023-06-19T08:52:38;21.80;99.90
15036;DHT22;7615;48.574;13.474;2023-06-19T08:55:14;22.10;99.90
15036;DHT22;7615;48.574;13.474;2023-06-19T08:57:49;22.40;99.90
15036;DHT22;7615;48.574;13.474;2023-06-19T09:00:28;22.30;99.90
15036;DHT22;7615;48.574;13.474;2023-06-19T09:05:41;22.90;99.90
15036;DHT22;7615;48.574;13.474;2023-06-19T09:08:23;22.90;99.90
15036;DHT22;7615;48.574;13.474;2023-06-19T09:11:01;22.50;99.90
15036;DHT22;7615;48.574;13.474;2023-06-19T09:13:32;22.30;99.90
15036;DHT22;7615;48.574;13.474;2023-06-19T09:16:09;22.30;99.90
15036;DHT22;7615;48.574;13.474;2023-06-19T13:24:10;29.10;97.90
15036;DHT22;7615;48.574;13.474;2023-06-19T13:27:08;29.20;98.60
15036;DHT22;7615;48.574;13.474;2023-06-19T13:32:54;29.30;97.80
15036;DHT22;7615;48.574;13.474;2023-06-19T13:35:44;29.70;98.10
15036;DHT22;7615;48.574;13.474;2023-06-19T13:38:16;29.90;98.10
15036;DHT22;7615;48.574;13.474;2023-06-19T13:40:46;30.00;97.70
15036;DHT22;7615;48.574;13.474;2023-06-19T13:43:13;29.90;97.70
15036;DHT22;7615;48.574;13.474;2023-06-19T13:45:43;29.90;98.30
15036;DHT22;7615;48.574;13.474;2023-06-19T13:48:15;29.90;98.00
15036;DHT22;7615;48.574;13.474;2023-06-19T13:50:48;29.90;97.70
15036;DHT22;7615;48.574;13.474;2023-06-19T13:53:24;30.00;97.30
15036;DHT22;7615;48.574;13.474;2023-06-19T18:22:32;25.30;99.90
15036;DHT22;7615;48.574;13.474;2023-06-19T18:29:54;24.90;99.90
15036;DHT22;7615;48.574;13.474;2023-06-19T18:32:21;24.60;99.90
15036;DHT22;7615;48.574;13.474;2023-06-19T18:39:45;24.40;99.90
15036;DHT22;7615;48.574;13.474;2023-06-19T18:42:12;24.60;99.90
15036;DHT22;7615;48.574;13.474;2023-06-19T18:44:39;24.10;99.90
15036;DHT22;7615;48.574;13.474;2023-06-19T18:47:06;24.00;99.90
15036;DHT22;7615;48.574;13.474;2023-06-19T18:49:54;23.90;99.90
15036;DHT22;7615;48.574;13.474;2023-06-19T18:52:23;23.80;99.90
15036;DHT22;7615;48.574;13.474;2023-06-19T18:54:56;23.70;99.90
15036;DHT22;7615;48.574;13.474;2023-06-19T18:57:25;23.40;99.90
15036;DHT22;7615;48.574;13.474;2023-06-19T18:59:54;23.30;99.90
15036;DHT22;7615;48.574;13.474;2023-06-19T19:02:22;23.30;99.90
15036;DHT22;7615;48.574;13.474;2023-06-19T19:08:35;22.80;99.90
15036;DHT22;7615;48.574;13.474;2023-06-19T19:11:02;22.90;99.90
15036;DHT22;7615;48.574;13.474;2023-06-19T19:13:30;22.80;99.90
15036;DHT22;7615;48.574;13.474;2023-06-19T19:15:59;22.70;99.90
15036;DHT22;7615;48.574;13.474;2023-06-19T19:18:29;22.50;99.90
15036;DHT22;7615;48.574;13.474;2023-06-19T19:21:46;22.50;99.90
15036;DHT22;7615;48.574;13.474;2023-06-19T19:24:28;22.40;99.90
15036;DHT22;7615;48.574;13.474;2023-06-19T19:26:57;22.40;99.90
15036;DHT22;7615;48.574;13.474;2023-06-19T19:29:24;22.20;99.90
15036;DHT22;7615;48.574;13.474;2023-06-19T19:31:51;22.00;99.90
15036;DHT22;7615;48.574;13.474;2023-06-19T19:37:36;22.00;99.90
15036;DHT22;7615;48.574;13.474;2023-06-19T19:40:59;21.90;99.90
15036;DHT22;7615;48.574;13.474;2023-06-19T19:43:26;21.90;99.90
15036;DHT22;7615;48.574;13.474;2023-06-19T19:45:54;21.80;99.90
15036;DHT22;7615;48.574;13.474;2023-06-19T19:55:44;21.40;99.90
15036;DHT22;7615;48.574;13.474;2023-06-19T21:04:31;20.20;99.90
15036;DHT22;7615;48.574;13.474;2023-06-19T21:06:58;20.00;99.90
15036;DHT22;7615;48.574;13.474;2023-06-19T21:09:27;20.00;99.90
15036;DHT22;7615;48.574;13.474;2023-06-19T21:12:30;20.00;99.90
15036;DHT22;7615;48.574;13.474;2023-06-19T21:15:16;20.00;99.90
15036;DHT22;7615;48.574;13.474;2023-06-19T21:21:30;20.10;99.90
